MSC Regina — 3FGF9 — position and weather

sailwx.info

Track history (hours):
 
Tides and Currents Weather Stations Pressure Air Temp Water Temp Dewpoint Dewpoint Depression Visibility Wind Speed Wind Dir Waves Ship Positions

MSC Regina

Last reported at 2016-Aug-31 07:29 UTC. Time now 2016-Aug-31 07:55 UTC.
Position N 45°35' W 073°31'.

Length 259 m; draft 10.3 m.

Type: Ship (hazmat cat A). MMSI: 357331980.

Date/timePositionNaut miles runAvg speedWind from/ knotsBaromVisibWave heightAir tempDewpointWater temp
2016-Aug-31 07:29N 45°35' W 073°31'0 0.0
2016-Aug-31 06:32N 45°35' W 073°31'0 0.0
2016-Aug-31 05:29N 45°35' W 073°31'0 0.0
2016-Aug-31 04:32N 45°35' W 073°31'0 0.0
2016-Aug-31 03:29N 45°35' W 073°31'0 0.0
2016-Aug-31 02:32N 45°35' W 073°31'0 0.0
2016-Aug-31 01:32N 45°35' W 073°31'0 0.0
2016-Aug-31 00:32N 45°35' W 073°31'0 0.0
2016-Aug-30 23:32N 45°35' W 073°31'0 0.0
2016-Aug-30 22:29N 45°35' W 073°31'0 0.0
2016-Aug-30 21:29N 45°35' W 073°31'0 0.0
2016-Aug-30 20:29N 45°35' W 073°31'0 0.0
2016-Aug-30 19:26N 45°35' W 073°31'0 0.0
2016-Aug-30 18:29N 45°35' W 073°31'0 0.0
2016-Aug-30 17:23N 45°35' W 073°31'0 0.0
2016-Aug-30 16:32N 45°35' W 073°31'0 0.0
2016-Aug-30 15:26N 45°35' W 073°31'0 0.0
2016-Aug-30 14:26N 45°35' W 073°31'0 0.0
2016-Aug-30 13:32N 45°35' W 073°31'0 0.0
2016-Aug-30 12:29N 45°35' W 073°31'0 0.0
2016-Aug-30 11:29N 45°35' W 073°31'0 0.0
2016-Aug-30 10:32N 45°35' W 073°31'0 0.0
2016-Aug-30 09:32N 45°35' W 073°31'0 0.0
2016-Aug-30 08:29N 45°35' W 073°31'0 0.0
2016-Aug-30 07:32N 45°35' W 073°31'0 0.0
2016-Aug-30 06:26N 45°35' W 073°31'0 0.0
2016-Aug-30 05:32N 45°35' W 073°31'0 0.0
2016-Aug-30 04:29N 45°35' W 073°31'0 0.0
2016-Aug-30 03:29N 45°35' W 073°31'0 0.0
2016-Aug-30 02:29N 45°35' W 073°31'0 0.0
2016-Aug-30 01:29N 45°35' W 073°31'0 0.0
2016-Aug-30 00:32N 45°35' W 073°31'0 0.0
2016-Aug-29 23:32N 45°35' W 073°31'0 0.0
2016-Aug-29 22:11N 45°35' W 073°31'0 0.0
2016-Aug-29 19:11N 45°35' W 073°31'0 0.1
2016-Aug-29 18:29N 45°35' W 073°30'5 5.9
2016-Aug-29 17:34N 45°40' W 073°28'9 9.2
2016-Aug-29 16:33N 45°47' W 073°21'10 9.6
2016-Aug-29 15:34N 45°55' W 073°13'9 9.2
2016-Aug-29 14:33N 46°03' W 073°06'10 9.6
2016-Aug-29 13:34N 46°10' W 072°56'1010.4
2016-Aug-29 12:34N 46°15' W 072°43'  
2016-Aug-23 05:33N 39°30' W 012°48'2819.9
2016-Aug-23 04:08N 39°17' W 012°16'1219.9
2016-Aug-23 03:33N 39°12' W 012°02'2019.7
2016-Aug-23 02:32N 39°03' W 011°39'2419.4
2016-Aug-23 01:19N 38°52' W 011°12'1619.7
2016-Aug-23 00:31N 38°45' W 010°54'1919.4
2016-Aug-22 23:33N 38°36' W 010°33'2019.5
2016-Aug-22 22:33N 38°27' W 010°11'1919.0
2016-Aug-22 21:34N 38°19' W 009°49'1919.3
2016-Aug-22 20:34N 38°09' W 009°28'2019.7
2016-Aug-22 19:33N 37°60' W 009°06'1212.4
2016-Aug-22 18:33N 37°56' W 008°51'0 0.2
2016-Aug-22 17:31N 37°56' W 008°51'0 0.0
2016-Aug-22 16:31N 37°56' W 008°51'0 0.0
2016-Aug-22 15:31N 37°56' W 008°51'0 0.0
2016-Aug-22 14:25N 37°56' W 008°51'0 0.0
2016-Aug-22 13:31N 37°56' W 008°51'0 0.0
2016-Aug-22 12:31N 37°56' W 008°51'0 0.0
2016-Aug-22 11:31N 37°56' W 008°51'0 0.0
2016-Aug-22 10:31N 37°56' W 008°51'0 0.0
2016-Aug-22 09:31N 37°56' W 008°51'0 0.0
2016-Aug-22 08:31N 37°56' W 008°51'0 0.0
2016-Aug-22 07:31N 37°56' W 008°51'0 0.0
2016-Aug-22 06:31N 37°56' W 008°51'0 0.0
2016-Aug-22 05:31N 37°56' W 008°51'0 0.0
2016-Aug-22 04:31N 37°56' W 008°51'4 3.8
2016-Aug-22 03:33N 37°52' W 008°51'1413.9
2016-Aug-22 02:33N 37°40' W 008°59'1616.4
2016-Aug-22 01:33N 37°25' W 009°07'1716.7
2016-Aug-22 00:33N 37°10' W 009°16'1616.1
2016-Aug-21 23:33N 36°54' W 009°19'1716.6
2016-Aug-21 22:33N 36°44' W 009°02'1717.2
2016-Aug-21 21:33N 36°38' W 008°42'1817.4
2016-Aug-21 20:33N 36°32' W 008°21'1817.8
2016-Aug-21 19:33N 36°26' W 008°01'1817.6
2016-Aug-21 18:33N 36°21' W 007°40'1817.5
2016-Aug-21 17:33N 36°15' W 007°19'1817.6
2016-Aug-21 16:33N 36°12' W 006°58'4418.2
2016-Aug-21 14:08N 35°58' W 006°06'1118.9
2016-Aug-21 13:33N 35°59' W 005°53'1918.9
2016-Aug-21 12:33N 35°60' W 005°30'1717.0
2016-Aug-21 11:33N 36°03' W 005°09'  
Track history (hours):
 
Tides and Currents Weather Stations Pressure Air Temp Water Temp Dewpoint Dewpoint Depression Visibility Wind Speed Wind Dir Waves Ship Positions

MSC Regina

Last reported at 2016-Aug-31 07:29 UTC. Time now 2016-Aug-31 07:55 UTC.
Position N 45°35' W 073°31'.

Length 259 m; draft 10.3 m.

Type: Ship (hazmat cat A). MMSI: 357331980.

Date/timePositionNaut miles runAvg speedWind from/ knotsBaromVisibWave heightAir tempDewpointWater temp
2016-Aug-31 07:29N 45°35' W 073°31'0 0.0
2016-Aug-31 06:32N 45°35' W 073°31'0 0.0
2016-Aug-31 05:29N 45°35' W 073°31'0 0.0
2016-Aug-31 04:32N 45°35' W 073°31'0 0.0
2016-Aug-31 03:29N 45°35' W 073°31'0 0.0
2016-Aug-31 02:32N 45°35' W 073°31'0 0.0
2016-Aug-31 01:32N 45°35' W 073°31'0 0.0
2016-Aug-31 00:32N 45°35' W 073°31'0 0.0
2016-Aug-30 23:32N 45°35' W 073°31'0 0.0
2016-Aug-30 22:29N 45°35' W 073°31'0 0.0
2016-Aug-30 21:29N 45°35' W 073°31'0 0.0
2016-Aug-30 20:29N 45°35' W 073°31'0 0.0
2016-Aug-30 19:26N 45°35' W 073°31'0 0.0
2016-Aug-30 18:29N 45°35' W 073°31'0 0.0
2016-Aug-30 17:23N 45°35' W 073°31'0 0.0
2016-Aug-30 16:32N 45°35' W 073°31'0 0.0
2016-Aug-30 15:26N 45°35' W 073°31'0 0.0
2016-Aug-30 14:26N 45°35' W 073°31'0 0.0
2016-Aug-30 13:32N 45°35' W 073°31'0 0.0
2016-Aug-30 12:29N 45°35' W 073°31'0 0.0
2016-Aug-30 11:29N 45°35' W 073°31'0 0.0
2016-Aug-30 10:32N 45°35' W 073°31'0 0.0
2016-Aug-30 09:32N 45°35' W 073°31'0 0.0
2016-Aug-30 08:29N 45°35' W 073°31'0 0.0
2016-Aug-30 07:32N 45°35' W 073°31'0 0.0
2016-Aug-30 06:26N 45°35' W 073°31'0 0.0
2016-Aug-30 05:32N 45°35' W 073°31'0 0.0
2016-Aug-30 04:29N 45°35' W 073°31'0 0.0
2016-Aug-30 03:29N 45°35' W 073°31'0 0.0
2016-Aug-30 02:29N 45°35' W 073°31'0 0.0
2016-Aug-30 01:29N 45°35' W 073°31'0 0.0
2016-Aug-30 00:32N 45°35' W 073°31'0 0.0
2016-Aug-29 23:32N 45°35' W 073°31'0 0.0
2016-Aug-29 22:11N 45°35' W 073°31'0 0.0
2016-Aug-29 19:11N 45°35' W 073°31'0 0.1
2016-Aug-29 18:29N 45°35' W 073°30'5 5.9
2016-Aug-29 17:34N 45°40' W 073°28'9 9.2
2016-Aug-29 16:33N 45°47' W 073°21'10 9.6
2016-Aug-29 15:34N 45°55' W 073°13'9 9.2
2016-Aug-29 14:33N 46°03' W 073°06'10 9.6
2016-Aug-29 13:34N 46°10' W 072°56'1010.4
2016-Aug-29 12:34N 46°15' W 072°43'  
2016-Aug-23 05:33N 39°30' W 012°48'2819.9
2016-Aug-23 04:08N 39°17' W 012°16'1219.9
2016-Aug-23 03:33N 39°12' W 012°02'2019.7
2016-Aug-23 02:32N 39°03' W 011°39'2419.4
2016-Aug-23 01:19N 38°52' W 011°12'1619.7
2016-Aug-23 00:31N 38°45' W 010°54'1919.4
2016-Aug-22 23:33N 38°36' W 010°33'2019.5
2016-Aug-22 22:33N 38°27' W 010°11'1919.0
2016-Aug-22 21:34N 38°19' W 009°49'1919.3
2016-Aug-22 20:34N 38°09' W 009°28'2019.7
2016-Aug-22 19:33N 37°60' W 009°06'1212.4
2016-Aug-22 18:33N 37°56' W 008°51'0 0.2
2016-Aug-22 17:31N 37°56' W 008°51'0 0.0
2016-Aug-22 16:31N 37°56' W 008°51'0 0.0
2016-Aug-22 15:31N 37°56' W 008°51'0 0.0
2016-Aug-22 14:25N 37°56' W 008°51'0 0.0
2016-Aug-22 13:31N 37°56' W 008°51'0 0.0
2016-Aug-22 12:31N 37°56' W 008°51'0 0.0
2016-Aug-22 11:31N 37°56' W 008°51'0 0.0
2016-Aug-22 10:31N 37°56' W 008°51'0 0.0
2016-Aug-22 09:31N 37°56' W 008°51'0 0.0
2016-Aug-22 08:31N 37°56' W 008°51'0 0.0
2016-Aug-22 07:31N 37°56' W 008°51'0 0.0
2016-Aug-22 06:31N 37°56' W 008°51'0 0.0
2016-Aug-22 05:31N 37°56' W 008°51'0 0.0
2016-Aug-22 04:31N 37°56' W 008°51'4 3.8
2016-Aug-22 03:33N 37°52' W 008°51'1413.9
2016-Aug-22 02:33N 37°40' W 008°59'1616.4
2016-Aug-22 01:33N 37°25' W 009°07'1716.7
2016-Aug-22 00:33N 37°10' W 009°16'1616.1
2016-Aug-21 23:33N 36°54' W 009°19'1716.6
2016-Aug-21 22:33N 36°44' W 009°02'1717.2
2016-Aug-21 21:33N 36°38' W 008°42'1817.4
2016-Aug-21 20:33N 36°32' W 008°21'1817.8
2016-Aug-21 19:33N 36°26' W 008°01'1817.6
2016-Aug-21 18:33N 36°21' W 007°40'1817.5
2016-Aug-21 17:33N 36°15' W 007°19'1817.6
2016-Aug-21 16:33N 36°12' W 006°58'4418.2
2016-Aug-21 14:08N 35°58' W 006°06'1118.9
2016-Aug-21 13:33N 35°59' W 005°53'1918.9
2016-Aug-21 12:33N 35°60' W 005°30'1717.0
2016-Aug-21 11:33N 36°03' W 005°09'  

Dump ship's entire track history